Aeroporto :
LOGIN :

Iscrizione | Disclaimer

   EN    FR    IT 

 










Sommario :    VFR   VFR Marginale   IFR   IFR Intensivo   IFR Molto Intensivo
Visibilità : 
Base nubi : 
>= 8 km
>= 3000ft
5 / 8 km
1000 / 3000 ft
1500m / 5 km
500 / 1000 ft
800 / 1500m
200 / 500 ft
< 800m
< 200 ft
Simboli :   Temporali  Nebbia  Neve Forte  Precipitazioni Forti  Vento > 20 kt
SIGMETs :   Varie  Temporali  Ghiacco  Turbolenza  Onda orograficha  Ceneri Vulcaniche






- Altitudine del aeroporto : 68 ft


ESCM - Uppsala

ULTIMO METAR :
  • 141250Z AUTO 12009KT 9999 -RA BKN013/// OVC056/// 04/03 Q0987

METARs OBSOLETI :
  • 141220Z AUTO 12010KT 9999 FEW011/// SCT018/// BKN042/// BKN058/// 04/03 Q0987
  • 141150Z AUTO 12008KT 9999 OVC014/// 04/03 Q0987
  • 141120Z AUTO 12008KT 9999 -SHRA FEW011/// BKN015/// OVC064/// 04/03 Q0987
  • 141050Z AUTO 12008KT 9999 -SHRA SCT011/// BKN018/// BKN032/// OVC041/// 04/03 Q0987
  • 141020Z AUTO 14009KT 9999 FEW014/// SCT027/// BKN036/// OVC052/// 04/03 Q0988

Previsioni scadute.



MetMap, La meteo Aeronautica in un colpo d'occhio ! - Copyright ORBIFLY Dicembre 2007 - Disclaimer

ORBIFLY MET'MAP TEAM :

Programmazione e sviluppo : Alexandra Zaïnal
Concezione : Baudouin d'Aumeries
Aiuto per la programmazione : Marc-Olivier Méhu
Supporto tecnico e logistico : Manuel Goepfert
Aiuto per la traduzione : Arnaldo La Scala

Contatto : metmap@orbifly.com




FONTI E CREDITI :

   NOAA